sensor_id;sensor_type;location;lat;lon;timestamp;temperature;humidity
44229;DHT22;29904;51.058;5.378;2023-03-26T00:01:29;7.40;99.90
44229;DHT22;29904;51.058;5.378;2023-03-26T00:03:58;7.50;99.90
44229;DHT22;29904;51.058;5.378;2023-03-26T00:06:26;7.40;99.90
44229;DHT22;29904;51.058;5.378;2023-03-26T00:08:54;7.40;99.90
44229;DHT22;29904;51.058;5.378;2023-03-26T00:11:23;7.40;99.90
44229;DHT22;29904;51.058;5.378;2023-03-26T00:13:50;7.40;99.90
44229;DHT22;29904;51.058;5.378;2023-03-26T00:16:19;7.40;99.90
44229;DHT22;29904;51.058;5.378;2023-03-26T00:18:45;7.40;99.90
44229;DHT22;29904;51.058;5.378;2023-03-26T00:21:15;7.40;99.90
44229;DHT22;29904;51.058;5.378;2023-03-26T00:23:42;7.30;99.90
44229;DHT22;29904;51.058;5.378;2023-03-26T00:26:08;7.30;99.90
44229;DHT22;29904;51.058;5.378;2023-03-26T00:28:38;7.30;99.90
44229;DHT22;29904;51.058;5.378;2023-03-26T00:31:15;7.20;99.90
44229;DHT22;29904;51.058;5.378;2023-03-26T00:33:41;7.20;99.90
44229;DHT22;29904;51.058;5.378;2023-03-26T00:36:10;7.20;99.90
44229;DHT22;29904;51.058;5.378;2023-03-26T00:38:37;7.20;99.90
44229;DHT22;29904;51.058;5.378;2023-03-26T00:41:07;7.30;99.90
44229;DHT22;29904;51.058;5.378;2023-03-26T00:43:44;7.30;99.90
44229;DHT22;29904;51.058;5.378;2023-03-26T00:46:13;7.30;99.90
44229;DHT22;29904;51.058;5.378;2023-03-26T00:48:39;7.30;99.90
44229;DHT22;29904;51.058;5.378;2023-03-26T00:51:11;7.40;99.90
44229;DHT22;29904;51.058;5.378;2023-03-26T00:53:39;7.50;99.90
44229;DHT22;29904;51.058;5.378;2023-03-26T00:56:06;7.50;99.90
44229;DHT22;29904;51.058;5.378;2023-03-26T00:58:32;7.50;99.90
44229;DHT22;29904;51.058;5.378;2023-03-26T01:01:01;7.50;99.90
44229;DHT22;29904;51.058;5.378;2023-03-26T01:03:32;7.60;99.90
44229;DHT22;29904;51.058;5.378;2023-03-26T01:06:10;7.60;99.90
44229;DHT22;29904;51.058;5.378;2023-03-26T01:08:45;7.70;99.90
44229;DHT22;29904;51.058;5.378;2023-03-26T01:11:19;7.70;99.90
44229;DHT22;29904;51.058;5.378;2023-03-26T01:14:00;7.80;99.90
44229;DHT22;29904;51.058;5.378;2023-03-26T01:16:40;7.90;99.90
44229;DHT22;29904;51.058;5.378;2023-03-26T01:19:11;8.00;99.90
44229;DHT22;29904;51.058;5.378;2023-03-26T01:21:40;8.10;99.90
44229;DHT22;29904;51.058;5.378;2023-03-26T01:24:08;8.20;99.90
44229;DHT22;29904;51.058;5.378;2023-03-26T01:35:11;8.40;99.90
44229;DHT22;29904;51.058;5.378;2023-03-26T01:40:27;8.50;99.90
44229;DHT22;29904;51.058;5.378;2023-03-26T01:45:38;8.50;99.90
44229;DHT22;29904;51.058;5.378;2023-03-26T01:48:05;8.60;99.90
44229;DHT22;29904;51.058;5.378;2023-03-26T01:50:31;8.60;99.90
44229;DHT22;29904;51.058;5.378;2023-03-26T01:52:57;8.70;99.90
44229;DHT22;29904;51.058;5.378;2023-03-26T01:55:29;8.70;99.90
44229;DHT22;29904;51.058;5.378;2023-03-26T01:58:19;8.70;99.90
44229;DHT22;29904;51.058;5.378;2023-03-26T02:01:00;8.60;99.90
44229;DHT22;29904;51.058;5.378;2023-03-26T02:03:31;8.70;99.90
44229;DHT22;29904;51.058;5.378;2023-03-26T02:06:07;8.70;99.90
44229;DHT22;29904;51.058;5.378;2023-03-26T02:08:41;8.80;99.90
44229;DHT22;29904;51.058;5.378;2023-03-26T02:11:14;8.80;99.90
44229;DHT22;29904;51.058;5.378;2023-03-26T02:13:42;8.80;99.90
44229;DHT22;29904;51.058;5.378;2023-03-26T02:16:14;8.80;99.90
44229;DHT22;29904;51.058;5.378;2023-03-26T02:18:42;8.90;99.90
44229;DHT22;29904;51.058;5.378;2023-03-26T02:21:19;8.90;99.90
44229;DHT22;29904;51.058;5.378;2023-03-26T02:23:48;8.90;99.90
44229;DHT22;29904;51.058;5.378;2023-03-26T02:26:18;8.90;99.90
44229;DHT22;29904;51.058;5.378;2023-03-26T02:28:44;8.80;99.90
44229;DHT22;29904;51.058;5.378;2023-03-26T02:31:10;8.90;99.90
44229;DHT22;29904;51.058;5.378;2023-03-26T02:33:38;8.90;99.90
44229;DHT22;29904;51.058;5.378;2023-03-26T02:36:05;8.80;99.90
44229;DHT22;29904;51.058;5.378;2023-03-26T02:38:33;8.90;99.90
44229;DHT22;29904;51.058;5.378;2023-03-26T02:41:02;8.90;99.90
44229;DHT22;29904;51.058;5.378;2023-03-26T02:43:29;8.90;99.90
44229;DHT22;29904;51.058;5.378;2023-03-26T02:45:55;8.80;99.90
44229;DHT22;29904;51.058;5.378;2023-03-26T02:48:21;8.80;99.90
44229;DHT22;29904;51.058;5.378;2023-03-26T02:50:47;8.80;99.90
44229;DHT22;29904;51.058;5.378;2023-03-26T02:53:17;8.70;99.90
44229;DHT22;29904;51.058;5.378;2023-03-26T02:55:43;8.70;99.90
44229;DHT22;29904;51.058;5.378;2023-03-26T02:58:09;8.70;99.90
44229;DHT22;29904;51.058;5.378;2023-03-26T03:00:36;8.70;99.90
44229;DHT22;29904;51.058;5.378;2023-03-26T03:03:02;8.70;99.90
44229;DHT22;29904;51.058;5.378;2023-03-26T03:05:32;8.70;99.90
44229;DHT22;29904;51.058;5.378;2023-03-26T03:07:58;8.70;99.90
44229;DHT22;29904;51.058;5.378;2023-03-26T03:10:27;8.60;99.90
44229;DHT22;29904;51.058;5.378;2023-03-26T03:12:53;8.60;99.90
44229;DHT22;29904;51.058;5.378;2023-03-26T03:15:19;8.50;99.90
44229;DHT22;29904;51.058;5.378;2023-03-26T03:17:45;8.50;99.90
44229;DHT22;29904;51.058;5.378;2023-03-26T03:20:11;8.50;99.90
44229;DHT22;29904;51.058;5.378;2023-03-26T03:22:38;8.40;99.90
44229;DHT22;29904;51.058;5.378;2023-03-26T03:25:04;8.50;99.90
44229;DHT22;29904;51.058;5.378;2023-03-26T03:27:30;8.40;99.90
44229;DHT22;29904;51.058;5.378;2023-03-26T03:29:56;8.40;99.90
44229;DHT22;29904;51.058;5.378;2023-03-26T03:32:23;8.40;99.90
44229;DHT22;29904;51.058;5.378;2023-03-26T03:34:50;8.40;99.90
44229;DHT22;29904;51.058;5.378;2023-03-26T03:37:17;8.40;99.90
44229;DHT22;29904;51.058;5.378;2023-03-26T03:39:43;8.40;99.90
44229;DHT22;29904;51.058;5.378;2023-03-26T03:42:09;8.40;99.90
44229;DHT22;29904;51.058;5.378;2023-03-26T03:44:35;8.40;99.90
44229;DHT22;29904;51.058;5.378;2023-03-26T03:47:01;8.40;99.90
44229;DHT22;29904;51.058;5.378;2023-03-26T03:49:27;8.40;99.90
44229;DHT22;29904;51.058;5.378;2023-03-26T03:51:52;8.40;99.90
44229;DHT22;29904;51.058;5.378;2023-03-26T03:54:18;8.40;99.90
44229;DHT22;29904;51.058;5.378;2023-03-26T03:56:44;8.40;99.90
44229;DHT22;29904;51.058;5.378;2023-03-26T03:59:10;8.40;99.90
44229;DHT22;29904;51.058;5.378;2023-03-26T04:01:36;8.30;99.90
44229;DHT22;29904;51.058;5.378;2023-03-26T04:04:02;8.30;99.90
44229;DHT22;29904;51.058;5.378;2023-03-26T04:06:28;8.40;99.90
44229;DHT22;29904;51.058;5.378;2023-03-26T04:08:55;8.40;99.90
44229;DHT22;29904;51.058;5.378;2023-03-26T04:11:21;8.30;99.90
44229;DHT22;29904;51.058;5.378;2023-03-26T04:13:47;8.30;99.90
44229;DHT22;29904;51.058;5.378;2023-03-26T04:16:13;8.30;99.90
44229;DHT22;29904;51.058;5.378;2023-03-26T04:18:39;8.40;99.90
44229;DHT22;29904;51.058;5.378;2023-03-26T04:21:05;8.40;99.90
44229;DHT22;29904;51.058;5.378;2023-03-26T04:23:32;8.40;99.90
44229;DHT22;29904;51.058;5.378;2023-03-26T04:26:06;8.30;99.90
44229;DHT22;29904;51.058;5.378;2023-03-26T04:28:41;8.40;99.90
44229;DHT22;29904;51.058;5.378;2023-03-26T04:31:12;8.30;99.90
44229;DHT22;29904;51.058;5.378;2023-03-26T04:33:45;8.40;99.90
44229;DHT22;29904;51.058;5.378;2023-03-26T04:36:12;8.40;99.90
44229;DHT22;29904;51.058;5.378;2023-03-26T04:38:42;8.40;99.90
44229;DHT22;29904;51.058;5.378;2023-03-26T04:41:13;8.40;99.90
44229;DHT22;29904;51.058;5.378;2023-03-26T04:43:39;8.40;99.90
44229;DHT22;29904;51.058;5.378;2023-03-26T04:46:15;8.40;99.90
44229;DHT22;29904;51.058;5.378;2023-03-26T04:48:43;8.50;99.90
44229;DHT22;29904;51.058;5.378;2023-03-26T04:51:11;8.50;99.90
44229;DHT22;29904;51.058;5.378;2023-03-26T04:54:02;8.40;99.90
44229;DHT22;29904;51.058;5.378;2023-03-26T04:56:58;8.50;99.90
44229;DHT22;29904;51.058;5.378;2023-03-26T04:59:28;8.50;99.90
44229;DHT22;29904;51.058;5.378;2023-03-26T05:02:03;8.50;99.90
44229;DHT22;29904;51.058;5.378;2023-03-26T05:04:29;8.90;99.90
44229;DHT22;29904;51.058;5.378;2023-03-26T05:06:56;8.60;99.90
44229;DHT22;29904;51.058;5.378;2023-03-26T05:09:26;8.60;99.90
44229;DHT22;29904;51.058;5.378;2023-03-26T05:11:52;8.60;99.90
44229;DHT22;29904;51.058;5.378;2023-03-26T05:14:18;8.60;99.90
44229;DHT22;29904;51.058;5.378;2023-03-26T05:16:45;8.60;99.90
44229;DHT22;29904;51.058;5.378;2023-03-26T05:19:12;8.60;99.90
44229;DHT22;29904;51.058;5.378;2023-03-26T05:21:38;8.60;99.90
44229;DHT22;29904;51.058;5.378;2023-03-26T05:24:04;8.60;99.90
44229;DHT22;29904;51.058;5.378;2023-03-26T05:26:31;8.70;99.90
44229;DHT22;29904;51.058;5.378;2023-03-26T05:28:58;8.70;99.90
44229;DHT22;29904;51.058;5.378;2023-03-26T05:31:24;8.70;99.90
44229;DHT22;29904;51.058;5.378;2023-03-26T05:33:51;8.60;99.90
44229;DHT22;29904;51.058;5.378;2023-03-26T05:36:17;8.60;99.90
44229;DHT22;29904;51.058;5.378;2023-03-26T05:38:44;8.60;99.90
44229;DHT22;29904;51.058;5.378;2023-03-26T05:41:14;8.60;99.90
44229;DHT22;29904;51.058;5.378;2023-03-26T05:43:41;8.60;99.90
44229;DHT22;29904;51.058;5.378;2023-03-26T05:46:10;8.60;99.90
44229;DHT22;29904;51.058;5.378;2023-03-26T05:48:36;8.60;99.90
44229;DHT22;29904;51.058;5.378;2023-03-26T05:51:03;8.60;99.90
44229;DHT22;29904;51.058;5.378;2023-03-26T05:53:29;8.50;99.90
44229;DHT22;29904;51.058;5.378;2023-03-26T05:55:55;8.50;99.90
44229;DHT22;29904;51.058;5.378;2023-03-26T05:58:29;8.50;99.90
44229;DHT22;29904;51.058;5.378;2023-03-26T06:01:00;8.50;99.90
44229;DHT22;29904;51.058;5.378;2023-03-26T06:03:33;8.50;99.90
44229;DHT22;29904;51.058;5.378;2023-03-26T06:05:59;8.50;99.90
44229;DHT22;29904;51.058;5.378;2023-03-26T06:08:25;8.50;99.90
44229;DHT22;29904;51.058;5.378;2023-03-26T06:11:00;8.50;99.90
44229;DHT22;29904;51.058;5.378;2023-03-26T06:13:26;8.50;99.90
44229;DHT22;29904;51.058;5.378;2023-03-26T06:15:52;8.60;99.90
44229;DHT22;29904;51.058;5.378;2023-03-26T06:18:17;8.60;99.90
44229;DHT22;29904;51.058;5.378;2023-03-26T06:20:45;8.50;99.90
44229;DHT22;29904;51.058;5.378;2023-03-26T06:23:11;8.60;99.90
44229;DHT22;29904;51.058;5.378;2023-03-26T06:25:37;8.60;99.90
44229;DHT22;29904;51.058;5.378;2023-03-26T06:28:03;8.60;99.90
44229;DHT22;29904;51.058;5.378;2023-03-26T06:30:29;8.60;99.90
44229;DHT22;29904;51.058;5.378;2023-03-26T06:32:54;8.60;99.90
44229;DHT22;29904;51.058;5.378;2023-03-26T06:35:20;8.60;99.90
44229;DHT22;29904;51.058;5.378;2023-03-26T06:37:46;8.60;99.90
44229;DHT22;29904;51.058;5.378;2023-03-26T06:40:12;8.60;99.90
44229;DHT22;29904;51.058;5.378;2023-03-26T06:42:38;8.60;99.90
44229;DHT22;29904;51.058;5.378;2023-03-26T06:45:04;8.60;99.90
44229;DHT22;29904;51.058;5.378;2023-03-26T06:47:30;8.60;99.90
44229;DHT22;29904;51.058;5.378;2023-03-26T06:49:55;8.60;99.90
44229;DHT22;29904;51.058;5.378;2023-03-26T06:52:21;8.60;99.90
44229;DHT22;29904;51.058;5.378;2023-03-26T06:54:47;8.60;99.90
44229;DHT22;29904;51.058;5.378;2023-03-26T06:57:13;8.70;99.90
44229;DHT22;29904;51.058;5.378;2023-03-26T06:59:38;8.70;99.90
44229;DHT22;29904;51.058;5.378;2023-03-26T07:02:04;8.70;99.90
44229;DHT22;29904;51.058;5.378;2023-03-26T07:04:30;8.70;99.90
44229;DHT22;29904;51.058;5.378;2023-03-26T07:06:55;8.70;99.90
44229;DHT22;29904;51.058;5.378;2023-03-26T07:09:21;8.60;99.90
44229;DHT22;29904;51.058;5.378;2023-03-26T07:11:47;9.30;99.90
44229;DHT22;29904;51.058;5.378;2023-03-26T07:14:13;8.50;99.90
44229;DHT22;29904;51.058;5.378;2023-03-26T07:16:38;8.50;99.90
44229;DHT22;29904;51.058;5.378;2023-03-26T07:19:04;8.50;99.90
44229;DHT22;29904;51.058;5.378;2023-03-26T07:21:30;8.50;99.90
44229;DHT22;29904;51.058;5.378;2023-03-26T07:23:56;8.40;99.90
44229;DHT22;29904;51.058;5.378;2023-03-26T07:29:12;8.40;99.90
44229;DHT22;29904;51.058;5.378;2023-03-26T07:31:58;8.40;99.90
44229;DHT22;29904;51.058;5.378;2023-03-26T07:37:29;8.40;99.90
44229;DHT22;29904;51.058;5.378;2023-03-26T07:40:02;8.40;99.90
44229;DHT22;29904;51.058;5.378;2023-03-26T07:42:44;8.40;99.90
44229;DHT22;29904;51.058;5.378;2023-03-26T07:45:36;8.40;99.90
44229;DHT22;29904;51.058;5.378;2023-03-26T07:50:43;8.40;99.90
44229;DHT22;29904;51.058;5.378;2023-03-26T07:53:09;8.40;99.90
44229;DHT22;29904;51.058;5.378;2023-03-26T07:55:49;8.40;99.90
44229;DHT22;29904;51.058;5.378;2023-03-26T08:03:49;8.40;99.90
44229;DHT22;29904;51.058;5.378;2023-03-26T08:06:28;8.40;99.90
44229;DHT22;29904;51.058;5.378;2023-03-26T08:09:15;8.50;99.90
44229;DHT22;29904;51.058;5.378;2023-03-26T08:12:23;8.40;99.90
44229;DHT22;29904;51.058;5.378;2023-03-26T08:17:39;8.30;99.90
44229;DHT22;29904;51.058;5.378;2023-03-26T08:23:18;8.20;99.90
44229;DHT22;29904;51.058;5.378;2023-03-26T08:28:55;8.20;99.90
44229;DHT22;29904;51.058;5.378;2023-03-26T08:31:30;8.20;99.90
44229;DHT22;29904;51.058;5.378;2023-03-26T08:33:57;8.20;99.90
44229;DHT22;29904;51.058;5.378;2023-03-26T08:36:23;8.20;99.90
44229;DHT22;29904;51.058;5.378;2023-03-26T08:38:48;8.20;99.90
44229;DHT22;29904;51.058;5.378;2023-03-26T08:47:07;7.90;99.90
44229;DHT22;29904;51.058;5.378;2023-03-26T08:56:10;7.80;99.90
44229;DHT22;29904;51.058;5.378;2023-03-26T09:10:24;7.70;99.90
44229;DHT22;29904;51.058;5.378;2023-03-26T09:15:42;7.70;99.90
44229;DHT22;29904;51.058;5.378;2023-03-26T09:26:53;7.80;99.90
44229;DHT22;29904;51.058;5.378;2023-03-26T09:38:10;7.80;99.90
44229;DHT22;29904;51.058;5.378;2023-03-26T09:41:15;7.90;99.90
44229;DHT22;29904;51.058;5.378;2023-03-26T09:44:05;7.90;99.90
44229;DHT22;29904;51.058;5.378;2023-03-26T09:49:47;7.90;99.90
44229;DHT22;29904;51.058;5.378;2023-03-26T09:52:27;8.00;99.90
44229;DHT22;29904;51.058;5.378;2023-03-26T09:55:37;7.90;99.90
44229;DHT22;29904;51.058;5.378;2023-03-26T09:58:16;8.00;99.90
44229;DHT22;29904;51.058;5.378;2023-03-26T10:03:46;7.90;99.90
44229;DHT22;29904;51.058;5.378;2023-03-26T10:09:44;7.80;99.90
44229;DHT22;29904;51.058;5.378;2023-03-26T10:18:20;7.90;99.90
44229;DHT22;29904;51.058;5.378;2023-03-26T10:31:35;7.90;99.90
44229;DHT22;29904;51.058;5.378;2023-03-26T10:36:39;7.90;99.90
44229;DHT22;29904;51.058;5.378;2023-03-26T10:42:03;7.80;99.90
44229;DHT22;29904;51.058;5.378;2023-03-26T10:47:34;7.90;99.90
44229;DHT22;29904;51.058;5.378;2023-03-26T10:55:31;7.90;99.90
44229;DHT22;29904;51.058;5.378;2023-03-26T11:00:55;8.00;99.90
44229;DHT22;29904;51.058;5.378;2023-03-26T11:03:54;8.00;99.90
44229;DHT22;29904;51.058;5.378;2023-03-26T11:06:42;8.00;99.90
44229;DHT22;29904;51.058;5.378;2023-03-26T11:17:24;8.30;99.90
44229;DHT22;29904;51.058;5.378;2023-03-26T11:22:52;8.20;99.90
44229;DHT22;29904;51.058;5.378;2023-03-26T11:30:52;8.30;99.90
44229;DHT22;29904;51.058;5.378;2023-03-26T11:33:23;8.30;99.90
44229;DHT22;29904;51.058;5.378;2023-03-26T11:35:54;8.30;99.90
44229;DHT22;29904;51.058;5.378;2023-03-26T11:38:29;8.20;99.90
44229;DHT22;29904;51.058;5.378;2023-03-26T11:40:59;8.30;99.90
44229;DHT22;29904;51.058;5.378;2023-03-26T11:43:34;8.30;99.90
44229;DHT22;29904;51.058;5.378;2023-03-26T11:46:03;8.30;99.90
44229;DHT22;29904;51.058;5.378;2023-03-26T11:48:31;8.30;99.90
44229;DHT22;29904;51.058;5.378;2023-03-26T11:51:27;8.30;99.90
44229;DHT22;29904;51.058;5.378;2023-03-26T11:53:54;8.20;99.90
44229;DHT22;29904;51.058;5.378;2023-03-26T11:56:31;8.30;99.90
44229;DHT22;29904;51.058;5.378;2023-03-26T11:59:04;8.30;99.90
44229;DHT22;29904;51.058;5.378;2023-03-26T12:01:46;8.30;99.90
44229;DHT22;29904;51.058;5.378;2023-03-26T12:04:19;8.30;99.90
44229;DHT22;29904;51.058;5.378;2023-03-26T12:06:57;8.30;99.90
44229;DHT22;29904;51.058;5.378;2023-03-26T12:09:25;8.30;99.90
44229;DHT22;29904;51.058;5.378;2023-03-26T12:11:59;8.30;99.90
44229;DHT22;29904;51.058;5.378;2023-03-26T12:14:28;8.40;99.90
44229;DHT22;29904;51.058;5.378;2023-03-26T12:19:40;8.40;99.90
44229;DHT22;29904;51.058;5.378;2023-03-26T12:22:33;8.40;99.90
44229;DHT22;29904;51.058;5.378;2023-03-26T12:30:36;8.50;99.90
44229;DHT22;29904;51.058;5.378;2023-03-26T12:33:18;8.60;99.90
44229;DHT22;29904;51.058;5.378;2023-03-26T12:36:24;8.70;99.90
44229;DHT22;29904;51.058;5.378;2023-03-26T12:38:53;8.70;99.90
44229;DHT22;29904;51.058;5.378;2023-03-26T12:41:33;8.80;99.90
44229;DHT22;29904;51.058;5.378;2023-03-26T12:46:50;8.80;99.90
44229;DHT22;29904;51.058;5.378;2023-03-26T12:49:19;8.80;99.90
44229;DHT22;29904;51.058;5.378;2023-03-26T12:51:52;8.80;99.90
44229;DHT22;29904;51.058;5.378;2023-03-26T12:57:21;8.80;99.90
44229;DHT22;29904;51.058;5.378;2023-03-26T13:14:09;9.10;99.90
44229;DHT22;29904;51.058;5.378;2023-03-26T13:22:45;9.10;99.90
44229;DHT22;29904;51.058;5.378;2023-03-26T13:28:00;9.10;99.90
44229;DHT22;29904;51.058;5.378;2023-03-26T13:30:37;9.10;99.90
44229;DHT22;29904;51.058;5.378;2023-03-26T13:33:32;9.10;99.90
44229;DHT22;29904;51.058;5.378;2023-03-26T13:38:53;9.20;99.90
44229;DHT22;29904;51.058;5.378;2023-03-26T13:44:02;9.20;99.90
44229;DHT22;29904;51.058;5.378;2023-03-26T13:46:52;9.20;99.90
44229;DHT22;29904;51.058;5.378;2023-03-26T13:49:33;9.10;99.90
44229;DHT22;29904;51.058;5.378;2023-03-26T13:52:11;9.00;99.90
44229;DHT22;29904;51.058;5.378;2023-03-26T13:54:51;9.10;99.90
44229;DHT22;29904;51.058;5.378;2023-03-26T13:57:39;9.00;99.90
44229;DHT22;29904;51.058;5.378;2023-03-26T14:00:12;8.90;99.90
44229;DHT22;29904;51.058;5.378;2023-03-26T14:02:46;8.90;99.90
44229;DHT22;29904;51.058;5.378;2023-03-26T14:05:25;8.90;99.90
44229;DHT22;29904;51.058;5.378;2023-03-26T14:07:59;8.90;99.90
44229;DHT22;29904;51.058;5.378;2023-03-26T14:10:31;9.10;99.90
44229;DHT22;29904;51.058;5.378;2023-03-26T14:13:12;9.10;99.90
44229;DHT22;29904;51.058;5.378;2023-03-26T14:16:03;8.90;99.90
44229;DHT22;29904;51.058;5.378;2023-03-26T14:18:55;8.90;99.90
44229;DHT22;29904;51.058;5.378;2023-03-26T14:21:54;8.90;99.90
44229;DHT22;29904;51.058;5.378;2023-03-26T14:35:32;9.10;99.90
44229;DHT22;29904;51.058;5.378;2023-03-26T14:54:38;9.10;99.90
44229;DHT22;29904;51.058;5.378;2023-03-26T15:11:25;9.00;99.90
44229;DHT22;29904;51.058;5.378;2023-03-26T15:14:19;9.10;99.90
44229;DHT22;29904;51.058;5.378;2023-03-26T15:17:00;9.10;99.90
44229;DHT22;29904;51.058;5.378;2023-03-26T15:28:08;9.00;99.90
44229;DHT22;29904;51.058;5.378;2023-03-26T15:46:55;8.80;99.90
44229;DHT22;29904;51.058;5.378;2023-03-26T15:52:27;8.80;99.90
44229;DHT22;29904;51.058;5.378;2023-03-26T15:58:05;8.70;99.90
44229;DHT22;29904;51.058;5.378;2023-03-26T16:00:35;8.80;99.90
44229;DHT22;29904;51.058;5.378;2023-03-26T16:05:44;8.70;99.90
44229;DHT22;29904;51.058;5.378;2023-03-26T16:10:59;8.50;99.90
44229;DHT22;29904;51.058;5.378;2023-03-26T16:18:34;8.50;99.90
44229;DHT22;29904;51.058;5.378;2023-03-26T16:31:27;8.10;99.90
44229;DHT22;29904;51.058;5.378;2023-03-26T16:36:43;8.10;99.90
44229;DHT22;29904;51.058;5.378;2023-03-26T16:39:22;8.00;99.90
44229;DHT22;29904;51.058;5.378;2023-03-26T16:41:54;7.90;99.90
44229;DHT22;29904;51.058;5.378;2023-03-26T16:44:44;7.90;99.90
44229;DHT22;29904;51.058;5.378;2023-03-26T16:55:14;7.80;99.90
44229;DHT22;29904;51.058;5.378;2023-03-26T17:01:02;7.80;99.90
44229;DHT22;29904;51.058;5.378;2023-03-26T17:03:37;7.80;99.90
44229;DHT22;29904;51.058;5.378;2023-03-26T17:08:51;7.70;99.90
44229;DHT22;29904;51.058;5.378;2023-03-26T17:23:01;8.00;99.90
44229;DHT22;29904;51.058;5.378;2023-03-26T17:33:37;8.00;99.90
44229;DHT22;29904;51.058;5.378;2023-03-26T17:36:30;8.10;99.90
44229;DHT22;29904;51.058;5.378;2023-03-26T17:38:59;8.10;99.90
44229;DHT22;29904;51.058;5.378;2023-03-26T17:41:55;8.10;99.90
44229;DHT22;29904;51.058;5.378;2023-03-26T17:47:03;8.10;99.90
44229;DHT22;29904;51.058;5.378;2023-03-26T17:49:32;8.10;99.90
44229;DHT22;29904;51.058;5.378;2023-03-26T17:52:23;8.20;99.90
44229;DHT22;29904;51.058;5.378;2023-03-26T17:54:52;8.10;99.90
44229;DHT22;29904;51.058;5.378;2023-03-26T17:57:26;8.10;99.90
44229;DHT22;29904;51.058;5.378;2023-03-26T17:59:58;8.10;99.90
44229;DHT22;29904;51.058;5.378;2023-03-26T18:02:34;8.00;99.90
44229;DHT22;29904;51.058;5.378;2023-03-26T18:05:03;7.90;99.90
44229;DHT22;29904;51.058;5.378;2023-03-26T18:07:55;7.80;99.90
44229;DHT22;29904;51.058;5.378;2023-03-26T18:10:36;7.80;99.90
44229;DHT22;29904;51.058;5.378;2023-03-26T18:16:32;7.70;99.90
44229;DHT22;29904;51.058;5.378;2023-03-26T18:19:03;7.70;99.90
44229;DHT22;29904;51.058;5.378;2023-03-26T18:21:41;7.70;99.90
44229;DHT22;29904;51.058;5.378;2023-03-26T18:24:13;7.60;99.90
44229;DHT22;29904;51.058;5.378;2023-03-26T18:26:44;7.60;99.90
44229;DHT22;29904;51.058;5.378;2023-03-26T18:29:30;7.60;99.90
44229;DHT22;29904;51.058;5.378;2023-03-26T18:32:18;7.50;99.90
44229;DHT22;29904;51.058;5.378;2023-03-26T18:35:13;7.50;99.90
44229;DHT22;29904;51.058;5.378;2023-03-26T18:37:42;7.50;99.90
44229;DHT22;29904;51.058;5.378;2023-03-26T18:40:12;7.50;99.90
44229;DHT22;29904;51.058;5.378;2023-03-26T18:42:52;7.50;99.90
44229;DHT22;29904;51.058;5.378;2023-03-26T18:48:07;7.40;99.90
44229;DHT22;29904;51.058;5.378;2023-03-26T18:50:39;7.40;99.90
44229;DHT22;29904;51.058;5.378;2023-03-26T18:53:08;7.40;99.90
44229;DHT22;29904;51.058;5.378;2023-03-26T18:55:39;7.40;99.90
44229;DHT22;29904;51.058;5.378;2023-03-26T18:58:31;7.40;99.90
44229;DHT22;29904;51.058;5.378;2023-03-26T19:01:02;7.40;99.90
44229;DHT22;29904;51.058;5.378;2023-03-26T19:03:34;7.40;99.90
44229;DHT22;29904;51.058;5.378;2023-03-26T19:06:02;7.30;99.90
44229;DHT22;29904;51.058;5.378;2023-03-26T19:08:29;7.30;99.90
44229;DHT22;29904;51.058;5.378;2023-03-26T19:10:57;7.20;99.90
44229;DHT22;29904;51.058;5.378;2023-03-26T19:13:27;7.20;99.90
44229;DHT22;29904;51.058;5.378;2023-03-26T19:15:53;7.20;99.90
44229;DHT22;29904;51.058;5.378;2023-03-26T19:18:24;7.10;99.90
44229;DHT22;29904;51.058;5.378;2023-03-26T19:20:59;7.10;99.90
44229;DHT22;29904;51.058;5.378;2023-03-26T19:23:35;7.10;99.90
44229;DHT22;29904;51.058;5.378;2023-03-26T19:26:04;7.10;99.90
44229;DHT22;29904;51.058;5.378;2023-03-26T19:28:33;7.00;99.90
44229;DHT22;29904;51.058;5.378;2023-03-26T19:31:09;7.00;99.90
44229;DHT22;29904;51.058;5.378;2023-03-26T19:33:39;7.00;99.90
44229;DHT22;29904;51.058;5.378;2023-03-26T19:38:42;6.90;99.90
44229;DHT22;29904;51.058;5.378;2023-03-26T19:41:26;6.80;99.90
44229;DHT22;29904;51.058;5.378;2023-03-26T19:43:58;6.90;99.90
44229;DHT22;29904;51.058;5.378;2023-03-26T19:46:25;6.90;99.90
44229;DHT22;29904;51.058;5.378;2023-03-26T19:48:54;6.90;99.90
44229;DHT22;29904;51.058;5.378;2023-03-26T19:51:30;6.90;99.90
44229;DHT22;29904;51.058;5.378;2023-03-26T19:53:58;6.90;99.90
44229;DHT22;29904;51.058;5.378;2023-03-26T19:56:25;6.80;99.90
44229;DHT22;29904;51.058;5.378;2023-03-26T19:58:52;6.70;99.90
44229;DHT22;29904;51.058;5.378;2023-03-26T20:01:24;6.70;99.90
44229;DHT22;29904;51.058;5.378;2023-03-26T20:03:53;6.70;99.90
44229;DHT22;29904;51.058;5.378;2023-03-26T20:06:21;6.60;99.90
44229;DHT22;29904;51.058;5.378;2023-03-26T20:08:47;6.60;99.90
44229;DHT22;29904;51.058;5.378;2023-03-26T20:11:30;6.60;99.90
44229;DHT22;29904;51.058;5.378;2023-03-26T20:13:59;6.50;99.90
44229;DHT22;29904;51.058;5.378;2023-03-26T20:16:30;6.50;99.90
44229;DHT22;29904;51.058;5.378;2023-03-26T20:18:58;6.50;99.90
44229;DHT22;29904;51.058;5.378;2023-03-26T20:21:27;6.40;99.90
44229;DHT22;29904;51.058;5.378;2023-03-26T20:23:54;6.40;99.90
44229;DHT22;29904;51.058;5.378;2023-03-26T20:26:21;6.30;99.90
44229;DHT22;29904;51.058;5.378;2023-03-26T20:28:48;6.30;99.90
44229;DHT22;29904;51.058;5.378;2023-03-26T20:31:22;6.30;99.90
44229;DHT22;29904;51.058;5.378;2023-03-26T20:33:50;6.30;99.90
44229;DHT22;29904;51.058;5.378;2023-03-26T20:36:17;6.20;99.90
44229;DHT22;29904;51.058;5.378;2023-03-26T20:38:44;6.20;99.90
44229;DHT22;29904;51.058;5.378;2023-03-26T20:41:21;6.10;99.90
44229;DHT22;29904;51.058;5.378;2023-03-26T20:43:48;6.10;99.90
44229;DHT22;29904;51.058;5.378;2023-03-26T20:46:22;6.00;99.90
44229;DHT22;29904;51.058;5.378;2023-03-26T20:48:48;6.10;99.90
44229;DHT22;29904;51.058;5.378;2023-03-26T20:51:17;6.10;99.90
44229;DHT22;29904;51.058;5.378;2023-03-26T20:53:45;6.10;99.90
44229;DHT22;29904;51.058;5.378;2023-03-26T20:56:16;6.00;99.90
44229;DHT22;29904;51.058;5.378;2023-03-26T20:58:44;6.00;99.90
44229;DHT22;29904;51.058;5.378;2023-03-26T21:01:11;6.00;99.90
44229;DHT22;29904;51.058;5.378;2023-03-26T21:03:39;6.10;99.90
44229;DHT22;29904;51.058;5.378;2023-03-26T21:06:07;6.00;99.90
44229;DHT22;29904;51.058;5.378;2023-03-26T21:08:36;6.00;99.90
44229;DHT22;29904;51.058;5.378;2023-03-26T21:11:04;6.00;99.90
44229;DHT22;29904;51.058;5.378;2023-03-26T21:13:39;6.00;99.90
44229;DHT22;29904;51.058;5.378;2023-03-26T21:16:09;5.90;99.90
44229;DHT22;29904;51.058;5.378;2023-03-26T21:18:35;6.00;99.90
44229;DHT22;29904;51.058;5.378;2023-03-26T21:29:37;5.90;99.90
44229;DHT22;29904;51.058;5.378;2023-03-26T21:32:03;5.90;99.90
44229;DHT22;29904;51.058;5.378;2023-03-26T21:34:30;5.90;99.90
44229;DHT22;29904;51.058;5.378;2023-03-26T21:36:58;5.90;99.90
44229;DHT22;29904;51.058;5.378;2023-03-26T21:39:25;5.80;99.90
44229;DHT22;29904;51.058;5.378;2023-03-26T21:41:51;5.80;99.90
44229;DHT22;29904;51.058;5.378;2023-03-26T21:44:17;5.80;99.90
44229;DHT22;29904;51.058;5.378;2023-03-26T21:46:45;5.80;99.90